sensor_id;sensor_type;location;lat;lon;timestamp;temperature;humidity
18876;DHT22;9570;50.854;13.778;2022-08-23T00:01:54;16.50;99.90
18876;DHT22;9570;50.854;13.778;2022-08-23T00:04:24;16.50;99.90
18876;DHT22;9570;50.854;13.778;2022-08-23T00:06:51;16.50;99.90
18876;DHT22;9570;50.854;13.778;2022-08-23T00:09:18;16.50;99.90
18876;DHT22;9570;50.854;13.778;2022-08-23T00:11:53;16.50;99.90
18876;DHT22;9570;50.854;13.778;2022-08-23T00:14:27;16.50;99.90
18876;DHT22;9570;50.854;13.778;2022-08-23T00:16:54;16.50;99.90
18876;DHT22;9570;50.854;13.778;2022-08-23T00:19:21;16.60;99.90
18876;DHT22;9570;50.854;13.778;2022-08-23T00:21:49;16.50;99.90
18876;DHT22;9570;50.854;13.778;2022-08-23T00:24:15;16.50;99.90
18876;DHT22;9570;50.854;13.778;2022-08-23T00:26:56;16.50;99.90
18876;DHT22;9570;50.854;13.778;2022-08-23T00:29:29;16.50;99.90
18876;DHT22;9570;50.854;13.778;2022-08-23T00:31:55;16.50;99.90
18876;DHT22;9570;50.854;13.778;2022-08-23T00:34:21;16.60;99.90
18876;DHT22;9570;50.854;13.778;2022-08-23T00:36:48;16.60;99.90
18876;DHT22;9570;50.854;13.778;2022-08-23T00:39:15;16.60;99.90
18876;DHT22;9570;50.854;13.778;2022-08-23T00:41:41;16.60;99.90
18876;DHT22;9570;50.854;13.778;2022-08-23T00:44:14;16.60;99.90
18876;DHT22;9570;50.854;13.778;2022-08-23T00:46:59;16.50;99.90
18876;DHT22;9570;50.854;13.778;2022-08-23T00:49:53;16.50;99.90
18876;DHT22;9570;50.854;13.778;2022-08-23T00:52:31;16.50;99.90
18876;DHT22;9570;50.854;13.778;2022-08-23T00:54:59;16.50;99.90
18876;DHT22;9570;50.854;13.778;2022-08-23T00:57:26;16.50;99.90
18876;DHT22;9570;50.854;13.778;2022-08-23T00:59:53;16.50;99.90
18876;DHT22;9570;50.854;13.778;2022-08-23T01:02:18;16.50;99.90
18876;DHT22;9570;50.854;13.778;2022-08-23T01:04:50;16.50;99.90
18876;DHT22;9570;50.854;13.778;2022-08-23T01:09:48;16.60;99.90
18876;DHT22;9570;50.854;13.778;2022-08-23T01:12:22;16.60;99.90
18876;DHT22;9570;50.854;13.778;2022-08-23T01:15:41;16.50;99.90
18876;DHT22;9570;50.854;13.778;2022-08-23T01:18:08;16.60;99.90
18876;DHT22;9570;50.854;13.778;2022-08-23T01:20:40;16.60;99.90
18876;DHT22;9570;50.854;13.778;2022-08-23T01:25:39;16.60;99.90
18876;DHT22;9570;50.854;13.778;2022-08-23T01:28:05;16.40;99.90
18876;DHT22;9570;50.854;13.778;2022-08-23T01:30:31;16.30;99.90
18876;DHT22;9570;50.854;13.778;2022-08-23T01:32:59;16.30;99.90
18876;DHT22;9570;50.854;13.778;2022-08-23T01:35:38;16.40;99.90
18876;DHT22;9570;50.854;13.778;2022-08-23T01:38:05;16.50;99.90
18876;DHT22;9570;50.854;13.778;2022-08-23T01:40:31;16.50;99.90
18876;DHT22;9570;50.854;13.778;2022-08-23T01:42:57;16.40;99.90
18876;DHT22;9570;50.854;13.778;2022-08-23T01:45:22;16.50;99.90
18876;DHT22;9570;50.854;13.778;2022-08-23T01:47:48;16.50;99.90
18876;DHT22;9570;50.854;13.778;2022-08-23T01:50:13;16.40;99.90
18876;DHT22;9570;50.854;13.778;2022-08-23T01:52:40;16.30;99.90
18876;DHT22;9570;50.854;13.778;2022-08-23T01:55:06;16.20;99.90
18876;DHT22;9570;50.854;13.778;2022-08-23T01:57:32;16.20;99.90
18876;DHT22;9570;50.854;13.778;2022-08-23T01:59:59;16.20;99.90
18876;DHT22;9570;50.854;13.778;2022-08-23T02:02:25;16.30;99.90
18876;DHT22;9570;50.854;13.778;2022-08-23T02:04:51;16.40;99.90
18876;DHT22;9570;50.854;13.778;2022-08-23T02:07:17;16.60;99.90
18876;DHT22;9570;50.854;13.778;2022-08-23T02:09:43;16.50;99.90
18876;DHT22;9570;50.854;13.778;2022-08-23T02:12:08;16.60;99.90
18876;DHT22;9570;50.854;13.778;2022-08-23T02:14:34;16.60;99.90
18876;DHT22;9570;50.854;13.778;2022-08-23T02:17:01;16.60;99.90
18876;DHT22;9570;50.854;13.778;2022-08-23T02:19:27;16.70;99.90
18876;DHT22;9570;50.854;13.778;2022-08-23T02:21:53;16.70;99.90
18876;DHT22;9570;50.854;13.778;2022-08-23T02:24:22;16.70;99.90
18876;DHT22;9570;50.854;13.778;2022-08-23T02:26:51;16.70;99.90
18876;DHT22;9570;50.854;13.778;2022-08-23T02:29:19;16.70;99.90
18876;DHT22;9570;50.854;13.778;2022-08-23T02:31:45;16.60;99.90
18876;DHT22;9570;50.854;13.778;2022-08-23T02:34:12;16.60;99.90
18876;DHT22;9570;50.854;13.778;2022-08-23T02:36:38;16.60;99.90
18876;DHT22;9570;50.854;13.778;2022-08-23T02:39:05;16.60;99.90
18876;DHT22;9570;50.854;13.778;2022-08-23T02:41:31;16.50;99.90
18876;DHT22;9570;50.854;13.778;2022-08-23T02:43:57;16.60;99.90
18876;DHT22;9570;50.854;13.778;2022-08-23T02:46:22;16.50;99.90
18876;DHT22;9570;50.854;13.778;2022-08-23T02:48:48;16.50;99.90
18876;DHT22;9570;50.854;13.778;2022-08-23T02:51:14;16.40;99.90
18876;DHT22;9570;50.854;13.778;2022-08-23T02:53:41;16.40;99.90
18876;DHT22;9570;50.854;13.778;2022-08-23T02:56:07;16.50;99.90
18876;DHT22;9570;50.854;13.778;2022-08-23T02:58:32;16.50;99.90
18876;DHT22;9570;50.854;13.778;2022-08-23T03:00:58;16.40;99.90
18876;DHT22;9570;50.854;13.778;2022-08-23T03:03:24;16.40;99.90
18876;DHT22;9570;50.854;13.778;2022-08-23T03:05:51;16.50;99.90
18876;DHT22;9570;50.854;13.778;2022-08-23T03:08:17;16.50;99.90
18876;DHT22;9570;50.854;13.778;2022-08-23T03:10:46;16.30;99.90
18876;DHT22;9570;50.854;13.778;2022-08-23T03:13:11;16.30;99.90
18876;DHT22;9570;50.854;13.778;2022-08-23T03:15:38;16.40;99.90
18876;DHT22;9570;50.854;13.778;2022-08-23T03:18:04;16.40;99.90
18876;DHT22;9570;50.854;13.778;2022-08-23T03:20:30;16.50;99.90
18876;DHT22;9570;50.854;13.778;2022-08-23T03:22:55;16.50;99.90
18876;DHT22;9570;50.854;13.778;2022-08-23T03:25:21;16.50;99.90
18876;DHT22;9570;50.854;13.778;2022-08-23T03:27:46;16.60;99.90
18876;DHT22;9570;50.854;13.778;2022-08-23T03:30:12;16.60;99.90
18876;DHT22;9570;50.854;13.778;2022-08-23T03:32:38;16.60;99.90
18876;DHT22;9570;50.854;13.778;2022-08-23T03:35:04;16.40;99.90
18876;DHT22;9570;50.854;13.778;2022-08-23T03:37:30;16.30;99.90
18876;DHT22;9570;50.854;13.778;2022-08-23T03:39:55;16.20;99.90
18876;DHT22;9570;50.854;13.778;2022-08-23T03:42:21;16.10;99.90
18876;DHT22;9570;50.854;13.778;2022-08-23T03:44:46;16.20;99.90
18876;DHT22;9570;50.854;13.778;2022-08-23T03:47:12;16.30;99.90
18876;DHT22;9570;50.854;13.778;2022-08-23T03:49:38;16.30;99.90
18876;DHT22;9570;50.854;13.778;2022-08-23T03:52:05;16.20;99.90
18876;DHT22;9570;50.854;13.778;2022-08-23T03:54:31;16.30;99.90
18876;DHT22;9570;50.854;13.778;2022-08-23T03:57:03;16.30;99.90
18876;DHT22;9570;50.854;13.778;2022-08-23T03:59:31;16.40;99.90
18876;DHT22;9570;50.854;13.778;2022-08-23T04:01:57;16.40;99.90
18876;DHT22;9570;50.854;13.778;2022-08-23T04:04:22;16.40;99.90
18876;DHT22;9570;50.854;13.778;2022-08-23T04:06:48;16.40;99.90
18876;DHT22;9570;50.854;13.778;2022-08-23T04:09:15;16.40;99.90
18876;DHT22;9570;50.854;13.778;2022-08-23T04:11:41;16.40;99.90
18876;DHT22;9570;50.854;13.778;2022-08-23T04:14:07;16.30;99.90
18876;DHT22;9570;50.854;13.778;2022-08-23T04:16:33;16.20;99.90
18876;DHT22;9570;50.854;13.778;2022-08-23T04:19:07;16.30;99.90
18876;DHT22;9570;50.854;13.778;2022-08-23T04:21:33;16.30;99.90
18876;DHT22;9570;50.854;13.778;2022-08-23T04:24:00;16.40;99.90
18876;DHT22;9570;50.854;13.778;2022-08-23T04:26:26;16.40;99.90
18876;DHT22;9570;50.854;13.778;2022-08-23T04:28:51;16.40;99.90
18876;DHT22;9570;50.854;13.778;2022-08-23T04:31:18;16.40;99.90
18876;DHT22;9570;50.854;13.778;2022-08-23T04:33:44;16.30;99.90
18876;DHT22;9570;50.854;13.778;2022-08-23T04:36:10;16.30;99.90
18876;DHT22;9570;50.854;13.778;2022-08-23T04:38:35;16.20;99.90
18876;DHT22;9570;50.854;13.778;2022-08-23T04:41:01;16.20;99.90
18876;DHT22;9570;50.854;13.778;2022-08-23T04:43:45;16.30;99.90
18876;DHT22;9570;50.854;13.778;2022-08-23T04:46:11;16.40;99.90
18876;DHT22;9570;50.854;13.778;2022-08-23T04:48:40;16.40;99.90
18876;DHT22;9570;50.854;13.778;2022-08-23T04:51:06;16.20;99.90
18876;DHT22;9570;50.854;13.778;2022-08-23T04:53:32;16.20;99.90
18876;DHT22;9570;50.854;13.778;2022-08-23T04:55:59;16.10;99.90
18876;DHT22;9570;50.854;13.778;2022-08-23T04:58:27;16.10;99.90
18876;DHT22;9570;50.854;13.778;2022-08-23T05:00:53;16.10;99.90
18876;DHT22;9570;50.854;13.778;2022-08-23T05:03:19;16.20;99.90
18876;DHT22;9570;50.854;13.778;2022-08-23T05:05:45;16.00;99.90
18876;DHT22;9570;50.854;13.778;2022-08-23T05:08:11;16.10;99.90
18876;DHT22;9570;50.854;13.778;2022-08-23T05:10:37;16.00;99.90
18876;DHT22;9570;50.854;13.778;2022-08-23T05:13:03;16.10;99.90
18876;DHT22;9570;50.854;13.778;2022-08-23T05:15:28;16.10;99.90
18876;DHT22;9570;50.854;13.778;2022-08-23T05:17:54;16.10;99.90
18876;DHT22;9570;50.854;13.778;2022-08-23T05:20:20;16.10;99.90
18876;DHT22;9570;50.854;13.778;2022-08-23T05:22:46;16.10;99.90
18876;DHT22;9570;50.854;13.778;2022-08-23T05:25:11;16.10;99.90
18876;DHT22;9570;50.854;13.778;2022-08-23T05:27:37;16.20;99.90
18876;DHT22;9570;50.854;13.778;2022-08-23T05:30:04;16.30;99.90
18876;DHT22;9570;50.854;13.778;2022-08-23T05:32:30;16.40;99.90
18876;DHT22;9570;50.854;13.778;2022-08-23T05:34:56;16.40;99.90
18876;DHT22;9570;50.854;13.778;2022-08-23T05:37:21;16.40;99.90
18876;DHT22;9570;50.854;13.778;2022-08-23T05:39:47;16.50;99.90
18876;DHT22;9570;50.854;13.778;2022-08-23T05:42:14;16.60;99.90
18876;DHT22;9570;50.854;13.778;2022-08-23T05:44:40;16.60;99.90
18876;DHT22;9570;50.854;13.778;2022-08-23T05:47:08;16.60;99.90
18876;DHT22;9570;50.854;13.778;2022-08-23T05:49:34;16.40;99.90
18876;DHT22;9570;50.854;13.778;2022-08-23T05:52:04;16.40;99.90
18876;DHT22;9570;50.854;13.778;2022-08-23T05:54:30;16.30;99.90
18876;DHT22;9570;50.854;13.778;2022-08-23T05:56:56;16.30;99.90
18876;DHT22;9570;50.854;13.778;2022-08-23T05:59:21;16.30;99.90
18876;DHT22;9570;50.854;13.778;2022-08-23T06:01:47;16.30;99.90
18876;DHT22;9570;50.854;13.778;2022-08-23T06:04:13;16.40;99.90
18876;DHT22;9570;50.854;13.778;2022-08-23T06:06:40;16.50;99.90
18876;DHT22;9570;50.854;13.778;2022-08-23T06:09:08;16.60;99.90
18876;DHT22;9570;50.854;13.778;2022-08-23T06:11:35;16.60;99.90
18876;DHT22;9570;50.854;13.778;2022-08-23T06:14:03;16.60;99.90
18876;DHT22;9570;50.854;13.778;2022-08-23T06:16:32;16.70;99.90
18876;DHT22;9570;50.854;13.778;2022-08-23T06:18:59;16.80;99.90
18876;DHT22;9570;50.854;13.778;2022-08-23T06:21:27;16.90;99.90
18876;DHT22;9570;50.854;13.778;2022-08-23T06:23:53;16.90;99.90
18876;DHT22;9570;50.854;13.778;2022-08-23T06:26:21;16.90;99.90
18876;DHT22;9570;50.854;13.778;2022-08-23T06:28:48;16.90;99.90
18876;DHT22;9570;50.854;13.778;2022-08-23T06:31:15;16.90;99.90
18876;DHT22;9570;50.854;13.778;2022-08-23T06:33:41;17.00;99.90
18876;DHT22;9570;50.854;13.778;2022-08-23T06:36:10;17.00;99.90
18876;DHT22;9570;50.854;13.778;2022-08-23T06:38:36;17.00;99.90
18876;DHT22;9570;50.854;13.778;2022-08-23T06:41:07;17.00;99.90
18876;DHT22;9570;50.854;13.778;2022-08-23T06:43:33;17.00;99.90
18876;DHT22;9570;50.854;13.778;2022-08-23T06:46:21;17.00;99.90
18876;DHT22;9570;50.854;13.778;2022-08-23T06:48:47;17.00;99.90
18876;DHT22;9570;50.854;13.778;2022-08-23T06:53:47;16.80;99.90
18876;DHT22;9570;50.854;13.778;2022-08-23T06:56:12;16.80;99.90
18876;DHT22;9570;50.854;13.778;2022-08-23T06:58:38;16.80;99.90
18876;DHT22;9570;50.854;13.778;2022-08-23T07:01:13;16.90;99.90
18876;DHT22;9570;50.854;13.778;2022-08-23T07:03:43;17.00;99.90
18876;DHT22;9570;50.854;13.778;2022-08-23T07:06:09;17.10;99.90
18876;DHT22;9570;50.854;13.778;2022-08-23T07:08:34;17.00;99.90
18876;DHT22;9570;50.854;13.778;2022-08-23T07:11:00;16.90;99.90
18876;DHT22;9570;50.854;13.778;2022-08-23T07:13:26;17.00;99.90
18876;DHT22;9570;50.854;13.778;2022-08-23T07:15:58;17.00;99.90
18876;DHT22;9570;50.854;13.778;2022-08-23T07:18:24;17.10;99.90
18876;DHT22;9570;50.854;13.778;2022-08-23T07:20:55;17.00;99.90
18876;DHT22;9570;50.854;13.778;2022-08-23T07:23:20;17.10;99.90
18876;DHT22;9570;50.854;13.778;2022-08-23T07:25:46;17.10;99.90
18876;DHT22;9570;50.854;13.778;2022-08-23T07:28:12;17.20;99.90
18876;DHT22;9570;50.854;13.778;2022-08-23T07:30:38;17.20;99.90
18876;DHT22;9570;50.854;13.778;2022-08-23T07:33:03;17.20;99.90
18876;DHT22;9570;50.854;13.778;2022-08-23T07:35:29;17.00;99.90
18876;DHT22;9570;50.854;13.778;2022-08-23T07:37:55;17.10;99.90
18876;DHT22;9570;50.854;13.778;2022-08-23T07:40:21;17.20;99.90
18876;DHT22;9570;50.854;13.778;2022-08-23T07:42:47;17.20;99.90
18876;DHT22;9570;50.854;13.778;2022-08-23T07:45:12;17.20;99.90
18876;DHT22;9570;50.854;13.778;2022-08-23T07:47:38;17.20;99.90
18876;DHT22;9570;50.854;13.778;2022-08-23T07:50:06;17.20;99.90
18876;DHT22;9570;50.854;13.778;2022-08-23T07:52:32;17.30;99.90
18876;DHT22;9570;50.854;13.778;2022-08-23T07:54:57;17.30;99.90
18876;DHT22;9570;50.854;13.778;2022-08-23T07:57:22;17.30;99.90
18876;DHT22;9570;50.854;13.778;2022-08-23T07:59:48;17.40;99.90
18876;DHT22;9570;50.854;13.778;2022-08-23T08:02:14;17.40;99.90
18876;DHT22;9570;50.854;13.778;2022-08-23T08:04:40;17.60;99.90
18876;DHT22;9570;50.854;13.778;2022-08-23T08:07:06;17.60;99.90
18876;DHT22;9570;50.854;13.778;2022-08-23T08:09:31;17.70;99.90
18876;DHT22;9570;50.854;13.778;2022-08-23T08:11:57;17.80;99.90
18876;DHT22;9570;50.854;13.778;2022-08-23T08:14:22;17.70;99.90
18876;DHT22;9570;50.854;13.778;2022-08-23T08:16:49;17.80;99.90
18876;DHT22;9570;50.854;13.778;2022-08-23T08:19:16;17.70;99.90
18876;DHT22;9570;50.854;13.778;2022-08-23T08:21:42;17.70;99.90
18876;DHT22;9570;50.854;13.778;2022-08-23T08:24:11;17.70;99.90
18876;DHT22;9570;50.854;13.778;2022-08-23T08:26:38;17.70;99.90
18876;DHT22;9570;50.854;13.778;2022-08-23T08:29:05;17.70;99.90
18876;DHT22;9570;50.854;13.778;2022-08-23T08:31:31;17.70;99.90
18876;DHT22;9570;50.854;13.778;2022-08-23T08:33:57;17.80;99.90
18876;DHT22;9570;50.854;13.778;2022-08-23T08:36:41;17.80;99.90
18876;DHT22;9570;50.854;13.778;2022-08-23T08:39:10;17.90;99.90
18876;DHT22;9570;50.854;13.778;2022-08-23T08:41:47;18.00;99.90
18876;DHT22;9570;50.854;13.778;2022-08-23T08:44:41;17.90;99.90
18876;DHT22;9570;50.854;13.778;2022-08-23T08:50:25;18.10;99.90
18876;DHT22;9570;50.854;13.778;2022-08-23T08:52:58;17.90;99.90
18876;DHT22;9570;50.854;13.778;2022-08-23T08:55:31;17.80;99.90
18876;DHT22;9570;50.854;13.778;2022-08-23T08:57:57;17.70;99.90
18876;DHT22;9570;50.854;13.778;2022-08-23T09:00:27;17.80;99.90
18876;DHT22;9570;50.854;13.778;2022-08-23T09:02:53;17.90;99.90
18876;DHT22;9570;50.854;13.778;2022-08-23T09:05:26;18.00;99.90
18876;DHT22;9570;50.854;13.778;2022-08-23T09:08:22;18.00;99.90
18876;DHT22;9570;50.854;13.778;2022-08-23T09:11:06;18.00;99.90
18876;DHT22;9570;50.854;13.778;2022-08-23T09:19:05;17.90;99.90
18876;DHT22;9570;50.854;13.778;2022-08-23T09:24:08;18.10;99.90
18876;DHT22;9570;50.854;13.778;2022-08-23T09:26:33;18.20;99.90
18876;DHT22;9570;50.854;13.778;2022-08-23T09:29:02;18.30;99.90
18876;DHT22;9570;50.854;13.778;2022-08-23T09:31:42;18.20;99.90
18876;DHT22;9570;50.854;13.778;2022-08-23T09:34:13;18.20;99.90
18876;DHT22;9570;50.854;13.778;2022-08-23T09:36:39;18.40;99.90
18876;DHT22;9570;50.854;13.778;2022-08-23T09:39:08;18.40;99.90
18876;DHT22;9570;50.854;13.778;2022-08-23T09:41:37;18.40;99.90
18876;DHT22;9570;50.854;13.778;2022-08-23T09:44:09;18.50;99.90
18876;DHT22;9570;50.854;13.778;2022-08-23T09:46:38;18.50;99.90
18876;DHT22;9570;50.854;13.778;2022-08-23T09:49:26;18.40;99.90
18876;DHT22;9570;50.854;13.778;2022-08-23T09:51:54;18.40;99.90
18876;DHT22;9570;50.854;13.778;2022-08-23T09:54:22;18.50;99.90
18876;DHT22;9570;50.854;13.778;2022-08-23T09:56:56;18.60;99.90
18876;DHT22;9570;50.854;13.778;2022-08-23T10:01:52;18.70;99.90
18876;DHT22;9570;50.854;13.778;2022-08-23T10:04:23;18.70;99.90
18876;DHT22;9570;50.854;13.778;2022-08-23T10:06:50;18.70;99.90
18876;DHT22;9570;50.854;13.778;2022-08-23T10:09:26;18.60;99.90
18876;DHT22;9570;50.854;13.778;2022-08-23T10:11:55;18.50;99.90
18876;DHT22;9570;50.854;13.778;2022-08-23T10:14:22;18.40;99.90
18876;DHT22;9570;50.854;13.778;2022-08-23T10:19:55;18.50;99.90
18876;DHT22;9570;50.854;13.778;2022-08-23T10:22:26;18.50;99.90
18876;DHT22;9570;50.854;13.778;2022-08-23T10:24:58;18.60;99.90
18876;DHT22;9570;50.854;13.778;2022-08-23T10:31:00;18.60;99.90
18876;DHT22;9570;50.854;13.778;2022-08-23T10:36:33;18.60;99.90
18876;DHT22;9570;50.854;13.778;2022-08-23T10:39:01;18.60;99.90
18876;DHT22;9570;50.854;13.778;2022-08-23T10:44:23;18.70;99.90
18876;DHT22;9570;50.854;13.778;2022-08-23T10:49:57;18.60;99.90
18876;DHT22;9570;50.854;13.778;2022-08-23T10:52:40;18.60;99.90
18876;DHT22;9570;50.854;13.778;2022-08-23T10:55:26;18.60;99.90
18876;DHT22;9570;50.854;13.778;2022-08-23T10:58:19;18.50;99.90
18876;DHT22;9570;50.854;13.778;2022-08-23T11:00:45;18.50;99.90
18876;DHT22;9570;50.854;13.778;2022-08-23T11:03:34;18.60;99.90
18876;DHT22;9570;50.854;13.778;2022-08-23T11:06:26;18.60;99.90
18876;DHT22;9570;50.854;13.778;2022-08-23T11:11:49;18.70;99.90
18876;DHT22;9570;50.854;13.778;2022-08-23T11:14:44;18.60;99.90
18876;DHT22;9570;50.854;13.778;2022-08-23T11:17:22;18.60;99.90
18876;DHT22;9570;50.854;13.778;2022-08-23T11:20:07;18.70;99.90
18876;DHT22;9570;50.854;13.778;2022-08-23T11:27:47;18.80;99.90
18876;DHT22;9570;50.854;13.778;2022-08-23T11:38:13;19.00;99.90
18876;DHT22;9570;50.854;13.778;2022-08-23T11:43:26;19.10;99.90
18876;DHT22;9570;50.854;13.778;2022-08-23T11:45:52;19.10;99.90
18876;DHT22;9570;50.854;13.778;2022-08-23T11:48:39;19.10;99.90
18876;DHT22;9570;50.854;13.778;2022-08-23T12:02:50;19.00;99.90
18876;DHT22;9570;50.854;13.778;2022-08-23T12:05:24;19.00;99.90
18876;DHT22;9570;50.854;13.778;2022-08-23T12:21:41;18.90;99.90
18876;DHT22;9570;50.854;13.778;2022-08-23T12:24:18;18.90;99.90
18876;DHT22;9570;50.854;13.778;2022-08-23T12:26:50;18.70;99.90
18876;DHT22;9570;50.854;13.778;2022-08-23T12:32:01;18.70;99.90
18876;DHT22;9570;50.854;13.778;2022-08-23T12:37:32;18.90;99.90
18876;DHT22;9570;50.854;13.778;2022-08-23T12:40:00;19.00;99.90
18876;DHT22;9570;50.854;13.778;2022-08-23T12:42:33;19.00;99.90
18876;DHT22;9570;50.854;13.778;2022-08-23T12:45:14;19.10;99.90
18876;DHT22;9570;50.854;13.778;2022-08-23T12:47:42;19.20;99.90
18876;DHT22;9570;50.854;13.778;2022-08-23T12:50:32;19.10;99.90
18876;DHT22;9570;50.854;13.778;2022-08-23T12:53:04;19.00;99.90
18876;DHT22;9570;50.854;13.778;2022-08-23T12:55:37;18.90;99.90
18876;DHT22;9570;50.854;13.778;2022-08-23T12:58:05;18.90;99.90
18876;DHT22;9570;50.854;13.778;2022-08-23T13:00:39;19.00;99.90
18876;DHT22;9570;50.854;13.778;2022-08-23T13:03:13;19.00;99.90
18876;DHT22;9570;50.854;13.778;2022-08-23T13:05:49;19.00;99.90
18876;DHT22;9570;50.854;13.778;2022-08-23T13:08:25;19.10;99.90
18876;DHT22;9570;50.854;13.778;2022-08-23T13:10:52;19.00;99.90
18876;DHT22;9570;50.854;13.778;2022-08-23T13:13:21;19.00;99.90
18876;DHT22;9570;50.854;13.778;2022-08-23T13:15:52;19.00;99.90
18876;DHT22;9570;50.854;13.778;2022-08-23T13:18:31;19.10;99.90
18876;DHT22;9570;50.854;13.778;2022-08-23T13:23:55;19.20;99.90
18876;DHT22;9570;50.854;13.778;2022-08-23T13:26:41;19.20;99.90
18876;DHT22;9570;50.854;13.778;2022-08-23T13:32:02;19.20;99.90
18876;DHT22;9570;50.854;13.778;2022-08-23T13:34:44;19.30;99.90
18876;DHT22;9570;50.854;13.778;2022-08-23T13:37:17;19.40;99.90
18876;DHT22;9570;50.854;13.778;2022-08-23T13:39:49;19.50;99.90
18876;DHT22;9570;50.854;13.778;2022-08-23T13:42:33;19.50;99.90
18876;DHT22;9570;50.854;13.778;2022-08-23T13:45:18;19.50;99.90
18876;DHT22;9570;50.854;13.778;2022-08-23T13:47:47;19.40;99.90
18876;DHT22;9570;50.854;13.778;2022-08-23T13:50:22;19.40;99.90
18876;DHT22;9570;50.854;13.778;2022-08-23T13:52:48;19.40;99.90
18876;DHT22;9570;50.854;13.778;2022-08-23T13:55:14;19.30;99.90
18876;DHT22;9570;50.854;13.778;2022-08-23T13:57:40;19.40;99.90
18876;DHT22;9570;50.854;13.778;2022-08-23T14:00:07;19.40;99.90
18876;DHT22;9570;50.854;13.778;2022-08-23T14:02:36;19.40;99.90
18876;DHT22;9570;50.854;13.778;2022-08-23T14:05:04;19.40;99.90
18876;DHT22;9570;50.854;13.778;2022-08-23T14:07:30;19.40;99.90
18876;DHT22;9570;50.854;13.778;2022-08-23T14:09:56;19.40;99.90
18876;DHT22;9570;50.854;13.778;2022-08-23T14:12:28;19.40;99.90
18876;DHT22;9570;50.854;13.778;2022-08-23T14:14:55;19.40;99.90
18876;DHT22;9570;50.854;13.778;2022-08-23T14:17:21;19.40;99.90
18876;DHT22;9570;50.854;13.778;2022-08-23T14:19:47;19.40;99.90
18876;DHT22;9570;50.854;13.778;2022-08-23T14:22:13;19.40;99.90
18876;DHT22;9570;50.854;13.778;2022-08-23T14:24:39;19.40;99.90
18876;DHT22;9570;50.854;13.778;2022-08-23T14:27:05;19.40;99.90
18876;DHT22;9570;50.854;13.778;2022-08-23T14:29:31;19.30;99.90
18876;DHT22;9570;50.854;13.778;2022-08-23T14:31:57;19.30;99.90
18876;DHT22;9570;50.854;13.778;2022-08-23T14:34:23;19.30;99.90
18876;DHT22;9570;50.854;13.778;2022-08-23T14:36:50;19.30;99.90
18876;DHT22;9570;50.854;13.778;2022-08-23T14:39:18;19.30;99.90
18876;DHT22;9570;50.854;13.778;2022-08-23T14:41:44;19.30;99.90
18876;DHT22;9570;50.854;13.778;2022-08-23T14:44:10;19.40;99.90
18876;DHT22;9570;50.854;13.778;2022-08-23T14:46:38;19.40;99.90
18876;DHT22;9570;50.854;13.778;2022-08-23T14:49:04;19.40;99.90
18876;DHT22;9570;50.854;13.778;2022-08-23T14:51:32;19.40;99.90
18876;DHT22;9570;50.854;13.778;2022-08-23T14:53:59;19.40;99.90
18876;DHT22;9570;50.854;13.778;2022-08-23T14:56:25;19.40;99.90
18876;DHT22;9570;50.854;13.778;2022-08-23T14:58:51;19.40;99.90
18876;DHT22;9570;50.854;13.778;2022-08-23T15:01:18;19.40;99.90
18876;DHT22;9570;50.854;13.778;2022-08-23T15:03:45;19.50;99.90
18876;DHT22;9570;50.854;13.778;2022-08-23T15:06:12;19.40;99.90
18876;DHT22;9570;50.854;13.778;2022-08-23T15:08:38;19.40;99.90
18876;DHT22;9570;50.854;13.778;2022-08-23T15:11:03;19.40;99.90
18876;DHT22;9570;50.854;13.778;2022-08-23T15:13:32;19.40;99.90
18876;DHT22;9570;50.854;13.778;2022-08-23T15:15:58;19.30;99.90
18876;DHT22;9570;50.854;13.778;2022-08-23T15:18:24;19.30;99.90
18876;DHT22;9570;50.854;13.778;2022-08-23T15:20:50;19.40;99.90
18876;DHT22;9570;50.854;13.778;2022-08-23T15:23:15;19.40;99.90
18876;DHT22;9570;50.854;13.778;2022-08-23T15:25:42;19.50;99.90
18876;DHT22;9570;50.854;13.778;2022-08-23T15:28:09;19.50;99.90
18876;DHT22;9570;50.854;13.778;2022-08-23T15:30:35;19.60;99.90
18876;DHT22;9570;50.854;13.778;2022-08-23T15:33:01;19.60;99.90
18876;DHT22;9570;50.854;13.778;2022-08-23T15:35:27;19.70;99.90
18876;DHT22;9570;50.854;13.778;2022-08-23T15:37:54;19.70;99.90
18876;DHT22;9570;50.854;13.778;2022-08-23T15:40:21;19.80;99.90
18876;DHT22;9570;50.854;13.778;2022-08-23T15:42:47;19.90;99.90
18876;DHT22;9570;50.854;13.778;2022-08-23T15:45:13;19.90;99.90
18876;DHT22;9570;50.854;13.778;2022-08-23T15:47:48;19.80;99.90
18876;DHT22;9570;50.854;13.778;2022-08-23T15:50:17;19.80;99.90
18876;DHT22;9570;50.854;13.778;2022-08-23T15:52:43;19.80;99.90
18876;DHT22;9570;50.854;13.778;2022-08-23T15:55:09;19.80;99.90
18876;DHT22;9570;50.854;13.778;2022-08-23T15:57:40;19.70;99.90
18876;DHT22;9570;50.854;13.778;2022-08-23T16:00:11;19.70;99.90
18876;DHT22;9570;50.854;13.778;2022-08-23T16:02:37;19.80;99.90
18876;DHT22;9570;50.854;13.778;2022-08-23T16:05:04;19.80;99.90
18876;DHT22;9570;50.854;13.778;2022-08-23T16:07:30;19.80;99.90
18876;DHT22;9570;50.854;13.778;2022-08-23T16:09:56;19.80;99.90
18876;DHT22;9570;50.854;13.778;2022-08-23T16:12:24;19.80;99.90
18876;DHT22;9570;50.854;13.778;2022-08-23T16:14:50;19.80;99.90
18876;DHT22;9570;50.854;13.778;2022-08-23T16:17:17;19.70;99.90
18876;DHT22;9570;50.854;13.778;2022-08-23T16:19:43;19.60;99.90
18876;DHT22;9570;50.854;13.778;2022-08-23T16:22:09;19.50;99.90
18876;DHT22;9570;50.854;13.778;2022-08-23T16:24:34;19.60;99.90
18876;DHT22;9570;50.854;13.778;2022-08-23T16:27:00;19.70;99.90
18876;DHT22;9570;50.854;13.778;2022-08-23T16:29:25;19.80;99.90
18876;DHT22;9570;50.854;13.778;2022-08-23T16:31:56;19.90;99.90
18876;DHT22;9570;50.854;13.778;2022-08-23T16:34:21;20.00;99.90
18876;DHT22;9570;50.854;13.778;2022-08-23T16:36:54;19.90;99.90
18876;DHT22;9570;50.854;13.778;2022-08-23T16:39:20;19.80;99.90
18876;DHT22;9570;50.854;13.778;2022-08-23T16:41:46;19.90;99.90
18876;DHT22;9570;50.854;13.778;2022-08-23T16:44:11;20.00;99.90
18876;DHT22;9570;50.854;13.778;2022-08-23T16:46:37;19.90;99.90
18876;DHT22;9570;50.854;13.778;2022-08-23T16:49:04;19.90;99.90
18876;DHT22;9570;50.854;13.778;2022-08-23T16:51:29;19.90;99.90
18876;DHT22;9570;50.854;13.778;2022-08-23T16:53:55;19.90;99.90
18876;DHT22;9570;50.854;13.778;2022-08-23T16:56:20;19.90;99.90
18876;DHT22;9570;50.854;13.778;2022-08-23T16:58:46;19.90;99.90
18876;DHT22;9570;50.854;13.778;2022-08-23T17:01:16;20.00;99.90
18876;DHT22;9570;50.854;13.778;2022-08-23T17:03:44;20.00;99.90
18876;DHT22;9570;50.854;13.778;2022-08-23T17:06:10;19.90;99.90
18876;DHT22;9570;50.854;13.778;2022-08-23T17:08:36;20.00;99.90
18876;DHT22;9570;50.854;13.778;2022-08-23T17:11:03;20.00;99.90
18876;DHT22;9570;50.854;13.778;2022-08-23T17:13:29;19.90;99.90